This is the latest recevied weather packets stored in our database for station/object KB3KBR-WX. If no packets are shown the sender has not sent any weather packets the latest 10 day(s).
| Time | Temp. | Humidity | Pressure | Rain* | Wind** | Luminosity | Snow |
|---|---|---|---|---|---|---|---|
| 1787444124 | 16.67° C | 94% | 1008.1 hPa | 0.51 mm | - | - | - |
| 1787443794 | 16.67° C | 94% | 1007.9 hPa | 0.51 mm | - | - | - |
| 1787443464 | 16.67° C | 94% | 1008 hPa | 0.51 mm | - | - | - |
| 1787443164 | 16.67° C | 94% | 1007.8 hPa | 0.76 mm | - | - | - |
| 1787442835 | 16.67° C | 94% | 1007.8 hPa | 0.76 mm | - | - | - |
| 1787442504 | 16.67° C | 94% | 1008 hPa | 0.76 mm | - | - | - |
| 1787442174 | 16.67° C | 94% | 1008.1 hPa | 0.76 mm | - | - | - |
| 1787442008 | 16.67° C | 94% | 1008.1 hPa | 0.51 mm | - | - | - |
| 1787441844 | 16.67° C | 94% | 1008.1 hPa | 0.51 mm | - | - | - |
| 1787441514 | 16.67° C | 94% | 1008.1 hPa | 0.51 mm | - | - | - |
| 1787441404 | 16.67° C | 94% | 1008.1 hPa | 0.51 mm | - | - | - |
| 1787441184 | 16.67° C | 94% | 1008.1 hPa | 0.51 mm | - | - | - |
| 1787440884 | 16.67° C | 94% | 1008.3 hPa | 0.51 mm | - | - | - |
| 1787440584 | 16.67° C | 94% | 1008.5 hPa | 0.51 mm | - | - | - |
| 1787440284 | 16.67° C | 94% | 1008.7 hPa | 0.51 mm | - | - | - |
| 1787439984 | 16.67° C | 94% | 1008.9 hPa | 0.76 mm | - | - | - |
| 1787439324 | 16.67° C | 94% | 1009.1 hPa | 0.76 mm | - | - | - |
| 1787438994 | 16.67° C | 94% | 1008.9 hPa | 1.27 mm | - | - | - |
| 1787438664 | 16.67° C | 93% | 1008.7 hPa | 1.78 mm | - | - | - |
| 1787438364 | 16.67° C | 93% | 1008.9 hPa | 2.54 mm | - | - | - |
| 1787438064 | 16.67° C | 93% | 1009.1 hPa | 3.05 mm | - | - | - |
| 1787437734 | 16.67° C | 93% | 1009.5 hPa | 3.81 mm | - | - | - |
| 1787437404 | 16.67° C | 93% | 1009.6 hPa | 4.83 mm | - | - | - |
| 1787437074 | 16.67° C | 93% | 1009.6 hPa | 6.86 mm | - | - | - |
| 1787436774 | 16.67° C | 92% | 1009 hPa | 12.45 mm | - | - | - |
* Rain latest hour (hover to see other rain measurements)
** Current wind speed in m/s (hover to see current wind gust speed)